Time,TemperatureF,DewpointF,PressureIn,WindDirection,WindDirectionDegrees,WindSpeedMPH,WindSpeedGustMPH,Humidity,HourlyPrecipIn,Conditions,Clouds,dailyrainin,SoftwareType,DateUTC
2013-05-24 00:01:00,69.0,30.0,-100.00,NW,315,5.0,15.0,23,0.00,,,0.00,,2013-05-24 00:01:00,
2013-05-24 00:11:00,69.0,30.0,-100.00,NW,315,5.0,15.0,23,0.00,,,0.00,,2013-05-24 00:11:00,
2013-05-24 00:21:00,69.0,30.0,-100.00,NW,315,5.0,15.0,23,0.00,,,0.00,,2013-05-24 00:21:00,
2013-05-24 00:52:00,69.0,27.0,-100.00,NW,310,4.0,14.0,21,0.00,,,0.00,,2013-05-24 00:52:00,
2013-05-24 01:01:00,69.0,27.0,-100.00,NW,310,4.0,14.0,21,0.00,,,0.00,,2013-05-24 01:01:00,
2013-05-24 01:12:00,69.0,27.0,-100.00,NW,310,4.0,14.0,21,0.00,,,0.00,,2013-05-24 01:12:00,
2013-05-24 01:22:00,69.0,27.0,-100.00,NW,310,4.0,14.0,21,0.00,,,0.00,,2013-05-24 01:22:00,
2013-05-24 01:52:00,65.0,38.0,-100.00,NE,45,4.0,12.0,37,0.00,,,0.00,,2013-05-24 01:52:00,
2013-05-24 02:01:00,65.0,38.0,-100.00,NE,45,4.0,12.0,37,0.00,,,0.00,,2013-05-24 02:01:00,
2013-05-24 02:11:00,65.0,38.0,-100.00,NE,45,4.0,12.0,37,0.00,,,0.00,,2013-05-24 02:11:00,
2013-05-24 02:21:00,65.0,38.0,-100.00,NE,45,4.0,12.0,37,0.00,,,0.00,,2013-05-24 02:21:00,
2013-05-24 02:52:00,57.0,38.0,-100.00,East,99,1.0,12.0,49,0.00,,,0.00,,2013-05-24 02:52:00,
2013-05-24 03:02:00,57.0,38.0,-100.00,East,99,1.0,12.0,49,0.00,,,0.00,,2013-05-24 03:02:00,
2013-05-24 03:11:00,57.0,38.0,-100.00,East,99,1.0,12.0,49,0.00,,,0.00,,2013-05-24 03:11:00,
2013-05-24 03:21:00,57.0,38.0,-100.00,East,99,1.0,12.0,49,0.00,,,0.00,,2013-05-24 03:21:00,
2013-05-24 03:53:00,53.0,42.0,-100.00,NNE,12,0.0,8.0,66,0.00,,,0.00,,2013-05-24 03:53:00,
2013-05-24 04:03:00,53.0,42.0,-100.00,NNE,12,0.0,8.0,66,0.00,,,0.00,,2013-05-24 04:03:00,
2013-05-24 04:12:00,53.0,42.0,-100.00,NNE,12,0.0,8.0,66,0.00,,,0.00,,2013-05-24 04:12:00,
2013-05-24 04:22:00,53.0,42.0,-100.00,NNE,12,0.0,8.0,66,0.00,,,0.00,,2013-05-24 04:22:00,
2013-05-24 04:53:00,47.0,40.0,-100.00,North,354,0.0,6.0,76,0.00,,,0.00,,2013-05-24 04:53:00,
2013-05-24 05:02:00,47.0,40.0,-100.00,North,354,0.0,6.0,76,0.00,,,0.00,,2013-05-24 05:02:00,
2013-05-24 05:12:00,47.0,40.0,-100.00,North,354,0.0,6.0,76,0.00,,,0.00,,2013-05-24 05:12:00,
2013-05-24 05:22:00,47.0,40.0,-100.00,North,354,0.0,6.0,76,0.00,,,0.00,,2013-05-24 05:22:00,
2013-05-24 05:52:00,45.0,40.0,-100.00,NW,322,0.0,5.0,82,0.00,,,0.00,,2013-05-24 05:52:00,
2013-05-24 06:01:00,45.0,40.0,-100.00,NW,322,0.0,5.0,82,0.00,,,0.00,,2013-05-24 06:01:00,
2013-05-24 06:12:00,45.0,40.0,-100.00,NW,322,0.0,5.0,82,0.00,,,0.00,,2013-05-24 06:12:00,
2013-05-24 06:21:00,45.0,40.0,-100.00,NW,322,0.0,5.0,82,0.00,,,0.00,,2013-05-24 06:21:00,
2013-05-24 06:52:00,40.0,37.0,-100.00,WNW,289,0.0,3.0,88,0.00,,,0.00,,2013-05-24 06:52:00,
2013-05-24 07:52:00,38.0,35.0,-100.00,WNW,302,0.0,0.0,89,0.00,,,0.00,,2013-05-24 07:52:00,
2013-05-24 08:52:00,33.0,31.0,-100.00,SSE,163,0.0,2.0,91,-99.99,,,0.00,,2013-05-24 08:52:00,
2013-05-24 09:53:00,33.0,32.0,-100.00,ENE,65,0.0,0.0,97,-99.99,,,0.00,,2013-05-24 09:53:00,
2013-05-24 10:52:00,31.0,30.0,-100.00,SE,136,0.0,0.0,97,-99.99,,,0.00,,2013-05-24 10:52:00,
2013-05-24 12:52:00,28.0,27.0,-100.00,SE,126,0.0,0.0,95,-99.99,,,0.00,,2013-05-24 12:52:00,
2013-05-24 13:52:00,29.0,26.0,-100.00,SE,146,0.0,0.0,90,-99.99,,,0.00,,2013-05-24 13:52:00,
2013-05-24 14:52:00,48.0,24.0,-100.00,ESE,106,0.0,0.0,38,-99.99,,,0.00,,2013-05-24 14:52:00,
2013-05-24 15:02:00,48.0,24.0,-100.00,ESE,106,0.0,0.0,38,-99.99,,,0.00,,2013-05-24 15:02:00,
2013-05-24 15:11:00,48.0,24.0,-100.00,ESE,106,0.0,0.0,38,-99.99,,,0.00,,2013-05-24 15:11:00,
2013-05-24 15:21:00,48.0,24.0,-100.00,ESE,106,0.0,0.0,38,-99.99,,,0.00,,2013-05-24 15:21:00,
2013-05-24 16:52:00,75.0,-5.0,-100.00,NW,309,0.0,0.0,4,0.00,,,-99.99,,2013-05-24 16:52:00,
2013-05-24 17:52:00,74.0,12.0,-100.00,SSW,194,5.0,5.0,9,-99.99,,,0.00,,2013-05-24 17:52:00,
2013-05-24 18:01:00,74.0,12.0,-100.00,SSW,194,5.0,5.0,9,-99.99,,,0.00,,2013-05-24 18:01:00,
2013-05-24 18:52:00,77.0,14.0,-100.00,SSW,197,5.0,11.0,9,0.00,,,0.00,,2013-05-24 18:52:00,
2013-05-24 19:52:00,78.0,19.0,-100.00,SSW,210,6.0,13.0,11,0.00,,,0.00,,2013-05-24 19:52:00,
2013-05-24 20:52:00,77.0,30.0,-100.00,WSW,247,5.0,12.0,18,0.00,,,0.00,,2013-05-24 20:52:00,
2013-05-24 21:01:00,77.0,30.0,-100.00,WSW,247,5.0,12.0,18,0.00,,,0.00,,2013-05-24 21:01:00,
2013-05-24 21:11:00,77.0,30.0,-100.00,WSW,247,5.0,12.0,18,0.00,,,0.00,,2013-05-24 21:11:00,
2013-05-24 21:21:00,77.0,30.0,-100.00,WSW,247,5.0,12.0,18,0.00,,,0.00,,2013-05-24 21:21:00,
2013-05-24 21:53:00,78.0,27.0,-100.00,SW,233,3.0,11.0,15,0.00,,,0.00,,2013-05-24 21:53:00,
2013-05-24 22:02:00,78.0,27.0,-100.00,SW,233,3.0,11.0,15,0.00,,,0.00,,2013-05-24 22:02:00,
2013-05-24 22:12:00,78.0,27.0,-100.00,SW,233,3.0,11.0,15,0.00,,,0.00,,2013-05-24 22:12:00,
2013-05-24 22:22:00,78.0,27.0,-100.00,SW,233,3.0,11.0,15,0.00,,,0.00,,2013-05-24 22:22:00,
2013-05-24 22:52:00,79.0,29.0,-100.00,SSW,210,3.0,13.0,16,0.00,,,0.00,,2013-05-24 22:52:00,
2013-05-24 23:02:00,79.0,29.0,-100.00,SSW,210,3.0,13.0,16,0.00,,,0.00,,2013-05-24 23:02:00,
2013-05-24 23:11:00,79.0,29.0,-100.00,SSW,210,3.0,13.0,16,0.00,,,0.00,,2013-05-24 23:11:00,
2013-05-24 23:22:00,79.0,29.0,-100.00,SSW,210,3.0,13.0,16,0.00,,,0.00,,2013-05-24 23:22:00,
2013-05-24 23:52:00,76.0,38.0,-100.00,North,9,4.0,11.0,25,0.00,,,0.00,,2013-05-24 23:52:00,